Estación de Combarbala

Ultimos registro cada 15 minutos 86
Estación Fecha / Hora Temperatura Humedad Lluvia Velocidad Dirección Radiación Presion
86 Combarbala 01-09-2026 21:15 15,6 47,7 0 0 0 0,6 912,6
85 Combarbala 01-09-2026 21:00 16,1 46,2 0 0 0 0,6 912,4
84 Combarbala 01-09-2026 20:45 16,5 44,9 0 0 317 0,6 912,3
83 Combarbala 01-09-2026 20:30 16,5 43,7 0 0 313 0,6 912,1
82 Combarbala 01-09-2026 20:15 17,3 41,6 0 0 313 0,6 911,8
81 Combarbala 01-09-2026 20:00 17,2 44,1 0 0 313 0,6 911,3
80 Combarbala 01-09-2026 19:45 18,2 37,2 0 0 313 0,6 911
79 Combarbala 01-09-2026 19:30 18,8 36,6 0 0 313 0,6 911
78 Combarbala 01-09-2026 19:15 18,7 34,3 0 0 313 0,6 910,9
77 Combarbala 01-09-2026 19:00 19,8 26 0 0 313 0,6 910,8
76 Combarbala 01-09-2026 18:45 20,1 27,2 0 0 313 0,6 910,9
75 Combarbala 01-09-2026 18:30 20,2 28,5 0 0 313 4,4 910,8
74 Combarbala 01-09-2026 18:15 22,2 27,6 0 0 314 9,4 910,6
73 Combarbala 01-09-2026 18:00 25,7 23,2 0 0 316 55,6 910,4
72 Combarbala 01-09-2026 17:45 25,7 18 0 0 321 115,6 910,3
71 Combarbala 01-09-2026 17:30 24,1 20,4 0 0 316 38,1 910,5
70 Combarbala 01-09-2026 17:15 25,3 15,9 0 0 324 28,1 910,8
69 Combarbala 01-09-2026 17:00 27,5 14,9 0 0 338 259,4 910,7
68 Combarbala 01-09-2026 16:45 27,6 14 0 0 307 311,9 910,7
67 Combarbala 01-09-2026 16:30 27,1 14,4 0 0,5 313 356,9 910,3
66 Combarbala 01-09-2026 16:15 27,8 16 0 0 307 400,6 910,5
65 Combarbala 01-09-2026 16:00 28,1 16,6 0 0,5 309 444,4 910,6
64 Combarbala 01-09-2026 15:45 27,7 15,7 0 0,5 316 484,4 910,9
63 Combarbala 01-09-2026 15:30 27,9 17,1 0 0,5 268 524,4 910,9
62 Combarbala 01-09-2026 15:15 27,3 15,2 0 0,5 288 560,6 911,1
61 Combarbala 01-09-2026 15:00 27,9 15,5 0 0,5 314 595,6 911,1
60 Combarbala 01-09-2026 14:45 28,2 17,7 0 0,5 331 626,9 911,1
59 Combarbala 01-09-2026 14:30 27,7 19 0 0,5 321 656,9 911,4
58 Combarbala 01-09-2026 14:15 27,6 20,6 0 0,5 263 680,6 911,6
57 Combarbala 01-09-2026 14:00 26,8 18,4 0 0,5 264 698,1 911,6
56 Combarbala 01-09-2026 13:45 26,2 20,8 0 0,5 260 716,9 911,8
55 Combarbala 01-09-2026 13:30 26,1 19,1 0 0,5 267 730,6 912,1
54 Combarbala 01-09-2026 13:15 26,1 20,5 0 0,5 247 743,1 912,3
53 Combarbala 01-09-2026 13:00 25,3 21,5 0 0,5 246 749,4 912,4
52 Combarbala 01-09-2026 12:45 24,9 22,6 0 1 251 755,6 912,5
51 Combarbala 01-09-2026 12:30 24,7 26,6 0 0,5 271 753,1 912,5
50 Combarbala 01-09-2026 12:15 24 23,7 0 0,5 248 748,1 912,6
49 Combarbala 01-09-2026 12:00 23,5 25 0 0 232 738,1 912,6
48 Combarbala 01-09-2026 11:45 24,5 27,6 0 0 121 748,1 912,8
47 Combarbala 01-09-2026 11:30 23,5 27 0 0 121 519,4 912,9
46 Combarbala 01-09-2026 11:15 22,6 28 0 0 121 778,1 913,2
45 Combarbala 01-09-2026 11:00 22,9 27,3 0 0 121 524,4 913,6
44 Combarbala 01-09-2026 10:45 21,3 31,8 0 0 121 638,1 913,9
43 Combarbala 01-09-2026 10:30 18,8 38 0 0,5 121 285,6 913,9
42 Combarbala 01-09-2026 10:15 20,5 33,4 0 0 121 550,6 914,1
41 Combarbala 01-09-2026 10:00 19 40,9 0 0,5 121 601,9 914,4
40 Combarbala 01-09-2026 09:45 18,3 45,3 0 0,5 121 295,6 914,5
39 Combarbala 01-09-2026 09:30 16,2 55 0 0,5 121 500,6 914,6
38 Combarbala 01-09-2026 09:15 14,2 62,7 0 0 121 251,9 914,3
37 Combarbala 01-09-2026 09:00 12,5 70,6 0 0 121 134,4 914,4
36 Combarbala 01-09-2026 08:45 12,3 69,6 0 0 121 105,6 914,2
35 Combarbala 01-09-2026 08:30 11,9 65,9 0 0 121 93,1 913,8
34 Combarbala 01-09-2026 08:15 10,9 70 0 0,5 122 71,9 913,6
33 Combarbala 01-09-2026 08:00 12,2 61,9 0 0 129 60,6 913,6
32 Combarbala 01-09-2026 07:45 10,9 69,1 0 0 126 50,6 913,6
31 Combarbala 01-09-2026 07:30 9,8 72,7 0 0 126 20,6 913,4
30 Combarbala 01-09-2026 07:15 9,9 72,4 0 0 126 6,9 913,4
29 Combarbala 01-09-2026 07:00 10,1 73,3 0 0 126 1,9 913,4
28 Combarbala 01-09-2026 06:45 9,5 76,8 0 0 126 0,6 913,3
27 Combarbala 01-09-2026 06:30 11,1 69,7 0 0 128 0,6 913,3
26 Combarbala 01-09-2026 06:15 11,1 72 0 0 129 0,6 913,5
25 Combarbala 01-09-2026 06:00 10,9 73,8 0 0,5 124 0,6 914
24 Combarbala 01-09-2026 05:45 10,3 74,8 0 0,5 122 0,6 913,9
23 Combarbala 01-09-2026 05:30 9,6 78 0 0 122 0,6 913,9
22 Combarbala 01-09-2026 05:15 9,2 80,2 0 0 122 0,6 913,8
21 Combarbala 01-09-2026 05:00 8,9 83,2 0 0 122 0,6 913,8
20 Combarbala 01-09-2026 04:45 9,2 80,4 0 0 122 0,6 913,8
19 Combarbala 01-09-2026 04:30 9,5 80,7 0 0 122 0,6 914
18 Combarbala 01-09-2026 04:15 10 79,6 0 0 122 0,6 914,1
17 Combarbala 01-09-2026 04:00 9,5 82,6 0 0 122 0,6 914,3
16 Combarbala 01-09-2026 03:45 9,5 80,4 0 0 122 0,6 914,7
15 Combarbala 01-09-2026 03:30 9,9 80,2 0 0 122 0,6 914,4
14 Combarbala 01-09-2026 03:15 9,9 80,5 0 0 122 0,6 914,9
13 Combarbala 01-09-2026 03:00 10 80,4 0 0 122 0,6 915,1
12 Combarbala 01-09-2026 02:45 9,9 80,1 0 0 129 0,6 915,3
11 Combarbala 01-09-2026 02:30 10,4 79,3 0 0 132 0,6 915,4
10 Combarbala 01-09-2026 02:15 10 80,8 0 0 132 0,6 915,3
9 Combarbala 01-09-2026 02:00 10,3 80,3 0 0 132 0,6 915,6
8 Combarbala 01-09-2026 01:45 10,1 81,6 0 0 132 0,6 915,9
7 Combarbala 01-09-2026 01:30 10,4 79 0 0 132 0,6 916
6 Combarbala 01-09-2026 01:15 10,6 80,1 0 0 132 0,6 916,1
5 Combarbala 01-09-2026 01:00 10,4 80,9 0 0 132 0,6 916,2
4 Combarbala 01-09-2026 00:45 11,5 76,8 0 0 132 0,6 916
3 Combarbala 01-09-2026 00:30 11,4 77,6 0 0 131 0,6 916
2 Combarbala 01-09-2026 00:15 11,6 77,1 0 0,5 121 0,6 916,1
1 Combarbala 01-09-2026 00:00 11 81,1 0 1 142 0,6 916,2